EGKK/LGW METAR and TAF weather

Enter ICAO airport designator
Station Type Date Time Source
EGKK METAR 2022/12/01 00:50 UTC NOAA

EGKK 010050Z 20001KT 6000 VCFG FEW007 05/05 Q1028


Station Type Date Time Source
EGKK Decoded METAR 2022/12/01 00:50 UTC NOAA

London / Gatwick Airport, United Kingdom (EGKK) 51-09N 000-11W 0M
Nov 30, 2022 - 07:50 PM EST / 2022.12.01 0050 UTC
Wind: from the SSW (200 degrees) at 1 MPH (1 KT):0
Visibility: 3 mile(s):0
Sky conditions: mostly clear
Weather: fog in the vicinity
Temperature: 41 F (5 C)
Dew Point: 41 F (5 C)
Relative Humidity: 100%
Pressure (altimeter): 30.36 in. Hg (1028 hPa)
ob: EGKK 010050Z 20001KT 6000 VCFG FEW007 05/05 Q1028
cycle: 1

Station Type Date Time Source
EGKK TAF 2022/11/30 18:09 UTC NOAA

TAF EGKK 301704Z 3018/0124 04003KT 9999 FEW010
BECMG 3018/3021 8000
TEMPO 3018/0110 4000 BR MIFG PROB30 3019/3024 0300 FG BKN001 PROB40 0100/0110 0300 FG VV///
BECMG 0110/0113 9999 PROB30
TEMPO 0112/0119 BKN010 PROB40
TEMPO 0119/0124 8000 BKN006

Example: see airport list